Time;durP1;ratioP1;P1;durP2;ratioP2;P2;SDS_P1;SDS_P2;PMS_P1;PMS_P2;Temp;Humidity;BMP_temperature;BMP_pressure;BME280_temperature;BME280_humidity;BME280_pressure;Samples;Min_cycle;Max_cycle;Signal;HPM_P1;HPM_P2
2023/04/07 00:01:43;;;;;;;38.45;29.65;;;10.90;99.90;;;;;;5060701;28;20415;-78
2023/04/07 00:04:08;;;;;;;34.15;26.38;;;10.80;99.90;;;;;;5077366;28;20371;-78
2023/04/07 00:06:34;;;;;;;37.38;28.42;;;10.80;99.90;;;;;;5077332;28;20024;-78
2023/04/07 00:09:00;;;;;;;34.42;25.92;;;10.70;99.90;;;;;;5060960;28;20027;-77
2023/04/07 00:11:26;;;;;;;36.75;27.08;;;10.70;99.90;;;;;;5094953;28;20525;-78
2023/04/07 00:13:51;;;;;;;35.38;26.33;;;10.60;99.90;;;;;;5060120;28;20032;-78
2023/04/07 00:16:17;;;;;;;33.60;25.25;;;10.50;99.90;;;;;;5077205;28;20460;-78
2023/04/07 00:18:43;;;;;;;35.42;24.98;;;10.50;99.90;;;;;;5060268;28;20028;-79
2023/04/07 00:21:08;;;;;;;38.85;25.88;;;10.50;99.90;;;;;;5076914;28;20052;-79
2023/04/07 00:23:34;;;;;;;37.17;25.85;;;10.50;99.90;;;;;;5077019;28;20028;-78
2023/04/07 00:26:00;;;;;;;31.92;23.45;;;10.50;99.90;;;;;;5094848;28;20028;-79
2023/04/07 00:28:26;;;;;;;33.25;22.65;;;10.50;99.90;;;;;;5095005;28;20036;-78
2023/04/07 00:30:51;;;;;;;31.13;22.80;;;10.40;99.90;;;;;;5094700;28;20329;-79
2023/04/07 00:33:17;;;;;;;32.42;23.15;;;10.40;99.90;;;;;;5076869;28;20043;-77
2023/04/07 00:35:43;;;;;;;33.67;23.35;;;10.40;99.90;;;;;;5076155;28;20032;-77
2023/04/07 00:38:08;;;;;;;30.33;21.27;;;10.40;99.90;;;;;;5095033;28;20032;-78
2023/04/07 00:40:34;;;;;;;32.42;22.75;;;10.50;99.90;;;;;;5094424;28;20205;-78
2023/04/07 00:43:00;;;;;;;32.90;21.25;;;10.40;99.90;;;;;;5059442;28;20515;-78
2023/04/07 00:45:25;;;;;;;34.00;22.38;;;10.40;99.90;;;;;;5060224;28;20386;-78
2023/04/07 00:47:51;;;;;;;30.15;22.40;;;10.40;99.90;;;;;;5042538;28;20424;-78
2023/04/07 00:50:18;;;;;;;31.88;21.27;;;10.40;99.90;;;;;;5077059;28;20035;-77
2023/04/07 00:52:44;;;;;;;29.25;20.60;;;10.40;99.90;;;;;;5076094;28;20426;-77
2023/04/07 00:55:10;;;;;;;29.95;20.48;;;10.40;99.90;;;;;;5075770;28;20074;-78
2023/04/07 00:57:36;;;;;;;29.05;19.67;;;10.40;99.90;;;;;;5059712;28;20411;-78
2023/04/07 01:00:05;;;;;;;30.50;19.77;;;10.30;99.90;;;;;;5076381;28;20047;-77
2023/04/07 01:02:54;;;;;;;31.30;19.55;;;10.30;99.90;;;;;;5059462;28;20036;-76
2023/04/07 01:05:42;;;;;;;29.48;18.35;;;10.30;99.90;;;;;;5077006;28;20028;-76
2023/04/07 01:08:20;;;;;;;30.48;17.77;;;10.40;99.90;;;;;;5094711;28;20024;-75
2023/04/07 01:11:24;;;;;;;28.02;17.80;;;10.30;99.90;;;;;;5077038;28;20028;-75
2023/04/07 01:13:51;;;;;;;27.67;17.65;;;10.30;99.90;;;;;;5094519;28;20418;-76
2023/04/07 01:16:30;;;;;;;28.25;17.40;;;10.30;99.90;;;;;;5076764;28;20431;-75
2023/04/07 01:19:14;;;;;;;29.02;17.60;;;10.30;99.90;;;;;;5094392;28;20028;-76
2023/04/07 01:21:43;;;;;;;27.48;17.48;;;10.30;99.90;;;;;;5094323;28;20050;-76
2023/04/07 01:25:00;;;;;;;28.08;17.35;;;10.30;99.90;;;;;;5093994;28;20024;-75
2023/04/07 01:27:51;;;;;;;30.63;16.98;;;10.20;99.90;;;;;;5038223;28;20040;-76
2023/04/07 01:30:18;;;;;;;27.95;16.42;;;10.20;99.90;;;;;;5076051;28;20035;-75
2023/04/07 01:32:49;;;;;;;29.05;17.00;;;10.20;99.90;;;;;;5094162;28;20024;-76
2023/04/07 01:35:16;;;;;;;26.42;15.70;;;10.10;99.90;;;;;;5076601;28;20028;-75
2023/04/07 01:37:45;;;;;;;23.40;16.15;;;10.10;99.90;;;;;;5075957;28;20471;-76
2023/04/07 01:40:12;;;;;;;26.63;17.02;;;10.10;99.90;;;;;;5059310;28;20036;-76
2023/04/07 01:42:38;;;;;;;31.48;17.02;;;10.20;99.90;;;;;;5093685;28;20066;-76
2023/04/07 01:45:06;;;;;;;28.23;17.17;;;10.20;99.90;;;;;;5059726;28;20035;-76
2023/04/07 01:47:36;;;;;;;29.77;16.83;;;10.20;99.90;;;;;;5093759;28;20349;-75
2023/04/07 01:50:05;;;;;;;28.80;17.65;;;10.20;99.90;;;;;;5093509;28;20028;-75
2023/04/07 01:52:35;;;;;;;27.33;17.20;;;10.20;99.90;;;;;;5093590;28;20137;-76
2023/04/07 01:55:05;;;;;;;28.85;15.93;;;10.20;99.90;;;;;;5093844;28;20028;-76
2023/04/07 01:57:30;;;;;;;29.42;16.67;;;10.30;99.90;;;;;;5075576;28;20031;-76
2023/04/07 01:59:56;;;;;;;28.52;16.60;;;10.20;99.90;;;;;;5092571;28;20044;-76
2023/04/07 02:02:22;;;;;;;24.50;14.80;;;10.30;99.90;;;;;;5075652;28;20024;-76
2023/04/07 02:04:57;;;;;;;26.08;14.80;;;10.30;99.90;;;;;;5075789;28;20059;-75
2023/04/07 02:07:45;;;;;;;26.95;15.40;;;10.30;99.90;;;;;;5075585;28;20123;-76
2023/04/07 02:10:14;;;;;;;25.25;14.45;;;10.30;99.90;;;;;;5093748;28;20066;-75
2023/04/07 02:12:41;;;;;;;26.17;16.23;;;10.20;99.90;;;;;;5093343;28;20039;-75
2023/04/07 02:15:11;;;;;;;27.63;16.95;;;10.20;99.90;;;;;;5075137;28;20032;-76
2023/04/07 02:17:41;;;;;;;32.50;16.58;;;10.20;99.90;;;;;;5076258;28;20024;-74
2023/04/07 02:20:09;;;;;;;32.65;16.83;;;10.20;99.90;;;;;;5093784;28;20032;-75
2023/04/07 02:22:36;;;;;;;30.25;17.77;;;10.10;99.90;;;;;;5093468;28;20079;-74
2023/04/07 02:25:02;;;;;;;31.60;17.67;;;10.10;99.90;;;;;;5075429;28;20032;-73
2023/04/07 02:27:27;;;;;;;28.70;16.48;;;10.00;99.90;;;;;;5075863;28;20028;-75
2023/04/07 02:29:53;;;;;;;27.73;16.23;;;10.00;99.90;;;;;;5076204;28;20475;-75
2023/04/07 02:32:19;;;;;;;27.60;15.10;;;10.00;99.90;;;;;;5059232;28;20031;-74
2023/04/07 02:34:45;;;;;;;25.98;15.23;;;10.00;99.90;;;;;;5075756;28;20131;-75
2023/04/07 02:37:11;;;;;;;31.35;17.27;;;10.00;99.90;;;;;;5075762;28;20105;-74
2023/04/07 02:39:36;;;;;;;25.75;15.75;;;10.00;99.90;;;;;;5092991;28;20036;-74
2023/04/07 02:42:02;;;;;;;25.08;14.93;;;10.00;99.90;;;;;;5075340;28;20024;-75
2023/04/07 02:44:28;;;;;;;26.17;15.43;;;10.00;99.90;;;;;;5071709;28;20110;-74
2023/04/07 02:46:53;;;;;;;21.20;14.75;;;10.00;99.90;;;;;;5055700;28;20123;-74
2023/04/07 02:49:19;;;;;;;27.95;14.65;;;10.00;99.90;;;;;;5073144;28;20040;-74
2023/04/07 02:51:45;;;;;;;26.63;15.35;;;10.10;99.90;;;;;;5071700;28;20427;-74
2023/04/07 02:54:11;;;;;;;28.23;16.40;;;10.10;99.90;;;;;;5073051;28;20048;-75
2023/04/07 02:56:37;;;;;;;26.73;16.13;;;10.10;99.90;;;;;;5071711;28;20471;-74
2023/04/07 02:59:02;;;;;;;26.48;16.13;;;10.10;99.90;;;;;;5072905;28;20119;-74
2023/04/07 03:01:28;;;;;;;24.35;14.98;;;10.20;99.90;;;;;;5073018;28;20108;-74
2023/04/07 03:03:54;;;;;;;26.58;14.93;;;10.20;99.90;;;;;;5038475;28;20059;-74
2023/04/07 03:06:19;;;;;;;26.60;14.07;;;10.20;99.90;;;;;;5073499;28;20028;-74
2023/04/07 03:08:45;;;;;;;24.15;15.10;;;10.20;99.90;;;;;;5071624;28;20078;-74
2023/04/07 03:11:11;;;;;;;23.05;14.35;;;10.20;99.90;;;;;;5055774;28;20029;-75
2023/04/07 03:13:36;;;;;;;24.15;14.90;;;10.30;99.90;;;;;;5075321;28;20028;-74
2023/04/07 03:16:02;;;;;;;20.33;13.88;;;10.30;99.90;;;;;;5059381;28;20028;-75
2023/04/07 03:18:28;;;;;;;24.15;14.35;;;10.30;99.90;;;;;;5075298;28;20465;-75
2023/04/07 03:20:54;;;;;;;20.40;13.45;;;10.30;99.90;;;;;;5076357;28;20044;-75
2023/04/07 03:23:22;;;;;;;22.20;12.82;;;10.30;99.90;;;;;;5074955;28;20060;-74
2023/04/07 03:25:48;;;;;;;21.38;12.48;;;10.30;99.90;;;;;;5075180;28;20024;-74
2023/04/07 03:28:14;;;;;;;24.50;11.80;;;10.30;99.90;;;;;;5058672;28;20044;-75
2023/04/07 03:30:40;;;;;;;25.55;13.20;;;10.30;99.90;;;;;;5075091;28;20032;-75
2023/04/07 03:33:05;;;;;;;24.80;12.85;;;10.30;99.90;;;;;;5076177;28;20325;-74
2023/04/07 03:35:31;;;;;;;25.98;12.30;;;10.40;99.90;;;;;;5074976;28;20040;-75
2023/04/07 03:37:57;;;;;;;24.02;12.82;;;10.40;99.90;;;;;;5076101;28;20032;-74
2023/04/07 03:40:22;;;;;;;23.25;12.77;;;10.30;99.90;;;;;;5074925;28;20040;-75
2023/04/07 03:42:48;;;;;;;18.40;11.25;;;10.30;99.90;;;;;;5077068;28;20468;-75
2023/04/07 03:45:15;;;;;;;21.05;11.88;;;10.40;99.90;;;;;;5078843;28;20039;-74
2023/04/07 03:47:40;;;;;;;23.83;14.10;;;10.40;99.90;;;;;;5061892;28;20082;-75
2023/04/07 03:50:06;;;;;;;24.65;13.10;;;10.30;99.90;;;;;;5077978;28;20032;-75
2023/04/07 03:52:32;;;;;;;22.90;13.40;;;10.30;99.90;;;;;;5061919;28;20535;-74
2023/04/07 03:54:58;;;;;;;24.63;13.88;;;10.30;99.90;;;;;;5061709;28;20028;-74
2023/04/07 03:57:23;;;;;;;27.13;14.35;;;10.20;99.90;;;;;;5078191;28;20471;-74
2023/04/07 03:59:50;;;;;;;30.95;14.73;;;10.30;99.90;;;;;;5095563;28;20048;-74
2023/04/07 04:02:16;;;;;;;23.92;15.43;;;10.30;99.90;;;;;;5061329;28;20092;-73
2023/04/07 04:04:42;;;;;;;25.67;16.02;;;10.30;99.90;;;;;;5060918;28;20032;-74
2023/04/07 04:07:07;;;;;;;27.98;15.07;;;10.30;99.90;;;;;;5077703;28;20035;-74
2023/04/07 04:09:33;;;;;;;33.47;17.90;;;10.30;99.90;;;;;;5095764;28;20468;-74
2023/04/07 04:11:59;;;;;;;30.48;16.45;;;10.30;99.90;;;;;;5095392;28;20373;-74
2023/04/07 04:14:24;;;;;;;32.67;18.15;;;10.30;99.90;;;;;;5095630;28;20032;-74
2023/04/07 04:16:50;;;;;;;37.10;19.23;;;10.30;99.90;;;;;;5077038;28;20032;-75
2023/04/07 04:19:15;;;;;;;29.65;18.17;;;10.30;99.90;;;;;;5060659;28;20032;-74
2023/04/07 04:21:41;;;;;;;36.28;17.83;;;10.20;99.90;;;;;;5095131;28;20032;-74
2023/04/07 04:24:07;;;;;;;33.90;18.35;;;10.30;99.90;;;;;;5060274;28;20389;-74
2023/04/07 04:26:32;;;;;;;32.60;18.20;;;10.20;99.90;;;;;;5077664;28;20054;-74
2023/04/07 04:28:58;;;;;;;27.90;16.80;;;10.30;99.90;;;;;;5077664;28;20043;-74
2023/04/07 04:31:24;;;;;;;26.83;16.38;;;10.30;99.90;;;;;;5060146;28;20028;-74
2023/04/07 04:33:49;;;;;;;28.23;16.08;;;10.30;99.90;;;;;;5076740;28;20054;-74
2023/04/07 04:36:15;;;;;;;29.27;16.45;;;10.30;99.90;;;;;;5095495;28;20060;-74
2023/04/07 04:38:41;;;;;;;27.80;15.10;;;10.30;99.90;;;;;;5060377;28;20147;-74
2023/04/07 04:41:06;;;;;;;30.55;16.05;;;10.40;99.90;;;;;;5077133;28;20070;-75
2023/04/07 04:43:32;;;;;;;27.20;14.82;;;10.40;99.90;;;;;;5077530;28;20429;-75
2023/04/07 04:45:58;;;;;;;27.00;16.15;;;10.40;99.90;;;;;;5060047;28;20028;-75
2023/04/07 04:48:23;;;;;;;25.42;16.35;;;10.40;99.90;;;;;;5060104;28;20055;-75
2023/04/07 04:50:49;;;;;;;26.15;16.98;;;10.40;99.90;;;;;;5076765;28;20036;-75
2023/04/07 04:53:15;;;;;;;25.75;15.43;;;10.40;99.90;;;;;;5076600;28;20101;-75
2023/04/07 04:55:45;;;;;;;30.92;16.85;;;10.40;99.90;;;;;;5059754;28;20539;-74
2023/04/07 04:58:11;;;;;;;29.80;16.55;;;10.40;99.90;;;;;;5077135;28;20144;-73
2023/04/07 05:00:37;;;;;;;29.23;16.85;;;10.40;99.90;;;;;;5076461;28;20131;-74
2023/04/07 05:03:03;;;;;;;25.63;15.85;;;10.30;99.90;;;;;;5076833;28;20456;-75
2023/04/07 05:05:28;;;;;;;25.92;15.27;;;10.30;99.90;;;;;;5094591;28;20031;-74
2023/04/07 05:07:54;;;;;;;24.85;14.25;;;10.30;99.90;;;;;;5059671;28;20409;-75
2023/04/07 05:10:20;;;;;;;30.08;16.20;;;10.30;99.90;;;;;;5076457;28;20032;-73
2023/04/07 05:12:45;;;;;;;28.13;15.57;;;10.30;99.90;;;;;;5075953;28;20030;-75
2023/04/07 05:15:11;;;;;;;33.13;16.50;;;10.30;99.90;;;;;;5076180;28;20028;-75
2023/04/07 05:17:37;;;;;;;23.60;12.45;;;10.30;99.90;;;;;;5060097;28;20031;-74
2023/04/07 05:20:03;;;;;;;23.85;14.80;;;10.30;99.90;;;;;;5075890;28;20036;-74
2023/04/07 05:22:29;;;;;;;27.85;14.73;;;10.40;99.90;;;;;;5060117;28;20441;-74
2023/04/07 05:24:55;;;;;;;30.73;14.32;;;10.40;99.90;;;;;;5094530;28;20028;-81
2023/04/07 05:27:20;;;;;;;24.50;12.63;;;10.40;99.90;;;;;;5094535;28;20025;-81
2023/04/07 05:29:46;;;;;;;20.50;12.05;;;10.40;99.90;;;;;;5059906;28;20034;-75
2023/04/07 05:32:12;;;;;;;19.90;11.73;;;10.50;99.90;;;;;;5059388;28;20035;-77
2023/04/07 05:34:37;;;;;;;19.48;11.93;;;10.60;99.90;;;;;;5058974;28;20035;-75
2023/04/07 05:37:03;;;;;;;21.42;11.30;;;10.60;99.90;;;;;;5076279;28;20039;-77
2023/04/07 05:39:28;;;;;;;20.77;11.35;;;10.60;99.90;;;;;;5094227;28;20036;-76
2023/04/07 05:41:56;;;;;;;19.90;11.35;;;10.60;99.90;;;;;;5059941;28;20076;-77
2023/04/07 05:44:21;;;;;;;23.38;11.30;;;10.60;99.90;;;;;;5094042;28;20055;-78
2023/04/07 05:46:47;;;;;;;29.25;12.82;;;10.60;99.90;;;;;;5093662;28;20032;-78
2023/04/07 05:49:13;;;;;;;22.00;12.20;;;10.60;99.90;;;;;;5058944;28;20032;-78
2023/04/07 05:51:39;;;;;;;24.50;12.00;;;10.60;99.90;;;;;;5093786;28;20107;-79
2023/04/07 05:54:05;;;;;;;24.15;13.45;;;10.50;99.90;;;;;;5075800;28;20113;-78
2023/04/07 05:56:31;;;;;;;21.30;11.50;;;10.50;99.90;;;;;;5059545;28;20028;-78
2023/04/07 05:58:57;;;;;;;22.48;12.43;;;10.50;99.90;;;;;;5094130;28;20166;-78
2023/04/07 06:01:23;;;;;;;26.00;12.40;;;10.50;99.90;;;;;;5059005;28;20032;-79
2023/04/07 06:03:49;;;;;;;24.65;13.10;;;10.50;99.90;;;;;;5093631;28;20027;-79
2023/04/07 06:06:14;;;;;;;24.35;11.75;;;10.50;99.90;;;;;;5076279;28;20032;-78
2023/04/07 06:08:40;;;;;;;27.02;13.45;;;10.50;99.90;;;;;;5075392;28;20363;-78
2023/04/07 06:11:06;;;;;;;29.27;13.82;;;10.60;99.90;;;;;;5075717;28;20032;-78
2023/04/07 06:13:31;;;;;;;39.42;14.90;;;10.60;99.90;;;;;;5076064;28;20372;-77
2023/04/07 06:15:57;;;;;;;42.35;13.20;;;10.60;99.90;;;;;;5059033;28;20028;-79
2023/04/07 06:18:23;;;;;;;33.10;13.05;;;10.60;99.90;;;;;;5093851;28;20387;-77
2023/04/07 06:20:49;;;;;;;26.30;12.57;;;10.60;99.90;;;;;;5075318;28;20040;-77
2023/04/07 06:23:15;;;;;;;23.52;12.75;;;10.60;99.90;;;;;;5059499;28;20066;-79
2023/04/07 06:25:40;;;;;;;25.98;13.50;;;10.70;99.90;;;;;;5058831;28;20388;-78
2023/04/07 06:28:06;;;;;;;24.85;12.95;;;10.70;99.90;;;;;;5093795;28;20035;-80
2023/04/07 06:30:32;;;;;;;26.30;12.65;;;10.70;99.90;;;;;;5058479;28;20090;-78
2023/04/07 06:32:58;;;;;;;30.30;12.30;;;10.70;99.90;;;;;;5075460;28;20116;-83
2023/04/07 06:35:25;;;;;;;22.23;12.40;;;10.70;99.90;;;;;;5075991;28;20060;-77
2023/04/07 06:37:51;;;;;;;25.05;12.57;;;10.70;99.90;;;;;;5058827;28;20032;-78
2023/04/07 06:40:17;;;;;;;22.38;11.45;;;10.70;99.90;;;;;;5075565;28;20105;-76
2023/04/07 06:42:43;;;;;;;26.42;12.25;;;10.70;99.90;;;;;;5075023;28;20034;-78
2023/04/07 06:45:09;;;;;;;20.52;9.73;;;10.60;99.90;;;;;;5093711;28;20070;-77
2023/04/07 06:47:35;;;;;;;17.27;9.73;;;10.60;99.90;;;;;;5078465;28;20028;-78
2023/04/07 06:50:00;;;;;;;26.85;8.82;;;10.70;99.90;;;;;;5097071;28;20036;-78
2023/04/07 06:52:26;;;;;;;13.88;7.18;;;10.80;99.90;;;;;;5062581;28;20031;-77
2023/04/07 06:54:51;;;;;;;11.00;7.45;;;10.80;99.90;;;;;;5079021;28;20035;-77
2023/04/07 06:57:17;;;;;;;10.50;6.78;;;10.80;99.90;;;;;;5079606;28;20035;-76
2023/04/07 06:59:43;;;;;;;13.45;7.07;;;10.80;99.90;;;;;;5045673;28;20043;-74
2023/04/07 07:02:08;;;;;;;15.93;7.05;;;10.90;99.90;;;;;;5078999;28;20440;-77
2023/04/07 07:04:34;;;;;;;13.35;6.18;;;10.90;99.90;;;;;;5062328;28;20475;-77
2023/04/07 07:07:01;;;;;;;13.05;5.63;;;10.90;99.90;;;;;;5062133;28;20039;-81
2023/04/07 07:09:26;;;;;;;10.77;5.03;;;10.90;99.90;;;;;;5062498;28;20028;-81
2023/04/07 07:11:52;;;;;;;14.25;5.65;;;10.90;99.90;;;;;;5078835;28;20035;-81
2023/04/07 07:14:18;;;;;;;13.95;6.18;;;11.00;99.90;;;;;;5078977;28;20094;-81
2023/04/07 07:16:43;;;;;;;10.45;5.28;;;10.90;99.90;;;;;;5096959;28;20028;-77
2023/04/07 07:19:09;;;;;;;11.10;5.57;;;11.00;99.90;;;;;;5062172;28;20043;-76
2023/04/07 07:21:35;;;;;;;10.13;4.93;;;11.00;99.90;;;;;;5097096;28;20028;-78
2023/04/07 07:24:01;;;;;;;9.60;5.00;;;11.00;99.90;;;;;;5096766;28;20074;-79
2023/04/07 07:26:27;;;;;;;13.85;5.25;;;11.00;99.90;;;;;;5096486;28;20020;-79
2023/04/07 07:28:52;;;;;;;17.67;5.35;;;11.00;99.90;;;;;;5078716;28;20111;-77
2023/04/07 07:31:18;;;;;;;10.45;5.28;;;10.90;99.90;;;;;;5061884;28;20402;-77
2023/04/07 07:33:44;;;;;;;14.02;4.88;;;10.90;99.90;;;;;;5078650;28;20063;-76
2023/04/07 07:36:10;;;;;;;12.73;4.90;;;10.90;99.90;;;;;;5096301;28;20024;-75
2023/04/07 07:38:37;;;;;;;10.63;5.32;;;11.00;99.90;;;;;;5061993;28;20036;-76
2023/04/07 07:41:03;;;;;;;9.82;4.75;;;10.90;99.90;;;;;;5078782;28;20028;-78
2023/04/07 07:43:29;;;;;;;10.27;3.90;;;10.90;99.90;;;;;;5061456;28;20361;-77
2023/04/07 07:45:54;;;;;;;7.93;4.20;;;11.00;99.90;;;;;;5045434;28;20336;-77
2023/04/07 07:48:20;;;;;;;8.40;4.25;;;11.00;99.90;;;;;;5061385;28;20028;-76
2023/04/07 07:50:47;;;;;;;7.25;3.60;;;11.00;99.90;;;;;;5096155;28;20072;-77
2023/04/07 07:53:13;;;;;;;7.38;3.45;;;11.10;99.90;;;;;;5078333;28;20460;-78
2023/04/07 07:55:39;;;;;;;8.38;3.05;;;11.10;99.90;;;;;;5095873;28;20097;-72
2023/04/07 07:58:05;;;;;;;6.85;3.03;;;11.20;99.90;;;;;;5077017;28;20173;-73
2023/04/07 08:00:31;;;;;;;8.35;3.45;;;11.20;99.90;;;;;;5061289;28;20433;-73
2023/04/07 08:02:56;;;;;;;8.02;3.25;;;11.20;99.90;;;;;;5061568;28;20057;-73
2023/04/07 08:05:22;;;;;;;8.10;3.30;;;11.20;99.90;;;;;;5061206;28;20020;-73
2023/04/07 08:07:48;;;;;;;5.25;2.58;;;11.20;99.90;;;;;;5078134;28;20099;-72
2023/04/07 08:10:14;;;;;;;7.07;3.55;;;11.20;99.90;;;;;;5095799;28;20344;-73
2023/04/07 08:12:40;;;;;;;7.03;3.65;;;11.20;99.90;;;;;;5077898;28;20404;-72
2023/04/07 08:15:08;;;;;;;10.18;3.80;;;11.20;99.90;;;;;;5096080;28;20050;-73
2023/04/07 08:17:35;;;;;;;7.97;3.65;;;11.20;99.90;;;;;;5095688;28;20030;-73
2023/04/07 08:20:00;;;;;;;8.55;3.38;;;11.20;99.90;;;;;;5095620;28;20024;-72
2023/04/07 08:22:26;;;;;;;6.85;3.42;;;11.20;99.90;;;;;;5095633;28;20070;-74
2023/04/07 08:24:52;;;;;;;6.30;3.35;;;11.30;99.90;;;;;;5077479;28;20116;-75
2023/04/07 08:27:17;;;;;;;8.90;4.00;;;11.30;99.90;;;;;;5078075;28;20028;-75
2023/04/07 08:29:43;;;;;;;6.47;3.38;;;11.30;99.90;;;;;;5061176;28;20195;-74
2023/04/07 08:32:09;;;;;;;8.65;3.25;;;11.40;99.90;;;;;;5061154;28;20497;-73
2023/04/07 08:34:34;;;;;;;5.70;2.55;;;11.40;99.90;;;;;;5060866;28;20020;-73
2023/04/07 08:37:00;;;;;;;8.15;3.55;;;11.40;99.90;;;;;;5061119;28;20108;-73
2023/04/07 08:39:27;;;;;;;6.10;3.50;;;11.40;99.90;;;;;;5095761;28;20074;-74
2023/04/07 08:41:54;;;;;;;5.47;2.70;;;11.40;99.90;;;;;;5095278;28;20031;-74
2023/04/07 08:44:22;;;;;;;6.40;2.67;;;11.40;99.90;;;;;;5095731;28;20067;-74
2023/04/07 08:46:50;;;;;;;5.70;2.72;;;11.40;99.90;;;;;;5076776;28;20439;-74
2023/04/07 08:49:17;;;;;;;6.90;2.80;;;11.40;99.90;;;;;;5076664;28;20035;-73
2023/04/07 08:51:47;;;;;;;8.52;3.80;;;11.40;99.90;;;;;;5095418;28;20047;-73
2023/04/07 08:54:15;;;;;;;6.72;3.45;;;11.40;99.90;;;;;;5060127;28;20032;-74
2023/04/07 08:56:42;;;;;;;6.90;3.13;;;11.40;99.90;;;;;;5094714;28;20031;-72
2023/04/07 08:59:12;;;;;;;5.70;3.80;;;11.40;99.90;;;;;;5095061;28;20032;-73
2023/04/07 09:01:39;;;;;;;10.75;4.03;;;11.40;99.90;;;;;;5095273;28;20090;-74
2023/04/07 09:04:08;;;;;;;12.70;4.88;;;11.40;99.90;;;;;;5077506;28;20048;-74
2023/04/07 09:06:34;;;;;;;9.75;4.72;;;11.40;99.90;;;;;;5094544;28;20081;-74
2023/04/07 09:09:01;;;;;;;8.43;4.68;;;11.30;99.90;;;;;;5076315;28;20085;-74
2023/04/07 09:11:28;;;;;;;12.20;4.50;;;11.30;99.90;;;;;;5094358;28;20047;-75
2023/04/07 09:13:54;;;;;;;11.52;4.68;;;11.30;99.90;;;;;;5094625;28;20034;-73
2023/04/07 09:16:21;;;;;;;9.85;4.80;;;11.30;99.90;;;;;;5076391;28;20020;-73
2023/04/07 09:18:46;;;;;;;10.95;4.80;;;11.30;99.90;;;;;;5094481;28;20017;-73
2023/04/07 09:21:12;;;;;;;9.93;4.28;;;11.30;99.90;;;;;;5076188;28;20031;-73
2023/04/07 09:23:40;;;;;;;10.82;5.13;;;11.30;99.90;;;;;;5076366;28;20072;-72
2023/04/07 09:26:23;;;;;;;10.27;4.88;;;11.40;99.90;;;;;;5094428;28;20028;-73
2023/04/07 09:28:54;;;;;;;6.28;4.30;;;11.40;99.90;;;;;;5094416;28;20027;-74
2023/04/07 09:31:20;;;;;;;12.57;5.28;;;11.40;99.90;;;;;;5093929;28;20483;-74
2023/04/07 09:33:49;;;;;;;10.18;5.22;;;11.50;99.90;;;;;;5075951;28;20027;-74
2023/04/07 09:36:15;;;;;;;13.45;5.35;;;11.40;99.90;;;;;;5094344;28;20526;-74
2023/04/07 09:38:43;;;;;;;12.15;5.78;;;11.40;99.90;;;;;;5094151;28;20068;-74
2023/04/07 09:41:20;;;;;;;8.90;4.20;;;11.30;99.90;;;;;;5093818;28;20177;-75
2023/04/07 09:43:45;;;;;;;12.10;4.88;;;11.20;99.90;;;;;;5093815;28;20093;-74
2023/04/07 09:46:16;;;;;;;8.32;4.32;;;11.30;99.90;;;;;;5093976;28;20447;-73
2023/04/07 09:48:44;;;;;;;8.57;3.80;;;11.30;99.90;;;;;;5075757;28;20035;-74
2023/04/07 09:51:14;;;;;;;8.15;3.58;;;11.30;99.90;;;;;;5094313;28;20036;-75
2023/04/07 09:53:45;;;;;;;10.95;4.40;;;11.40;99.90;;;;;;5076041;28;20032;-75
2023/04/07 09:56:11;;;;;;;8.88;3.45;;;11.40;99.90;;;;;;5075678;28;20031;-76
2023/04/07 09:58:39;;;;;;;5.80;2.65;;;11.50;99.90;;;;;;5093780;28;20028;-75
2023/04/07 10:01:09;;;;;;;7.93;3.40;;;11.50;99.90;;;;;;5042247;28;20047;-74
2023/04/07 10:03:35;;;;;;;7.50;3.10;;;11.60;99.90;;;;;;5094003;28;20471;-75
2023/04/07 10:06:02;;;;;;;7.28;3.00;;;11.80;99.90;;;;;;5075849;28;20102;-75
2023/04/07 10:08:30;;;;;;;6.32;2.85;;;11.80;99.90;;;;;;5093738;28;20032;-75
2023/04/07 10:10:57;;;;;;;9.40;3.08;;;11.80;99.90;;;;;;5093384;28;20534;-75
2023/04/07 10:13:24;;;;;;;7.22;2.53;;;11.90;99.90;;;;;;5075993;28;20024;-75
2023/04/07 10:15:51;;;;;;;5.15;2.42;;;11.80;99.90;;;;;;5075524;28;20522;-75
2023/04/07 10:18:19;;;;;;;9.13;3.08;;;11.80;99.90;;;;;;5075353;28;20503;-74
2023/04/07 10:20:45;;;;;;;5.68;3.17;;;11.80;99.90;;;;;;5093918;28;20028;-75
2023/04/07 10:23:41;;;;;;;12.82;4.50;;;11.80;99.90;;;;;;5080116;28;20028;-75
2023/04/07 10:26:07;;;;;;;9.90;3.47;;;11.80;99.90;;;;;;5079660;28;20062;-75
2023/04/07 10:28:37;;;;;;;9.55;3.97;;;11.70;99.90;;;;;;5063003;28;20418;-75
2023/04/07 10:31:03;;;;;;;13.25;3.85;;;11.80;99.90;;;;;;5079495;28;20067;-75
2023/04/07 10:33:49;;;;;;;8.45;3.30;;;11.70;99.90;;;;;;5062857;28;20036;-75
2023/04/07 10:36:16;;;;;;;7.47;3.22;;;11.70;99.90;;;;;;5097760;28;20028;-74
2023/04/07 10:38:42;;;;;;;11.38;4.43;;;11.70;99.90;;;;;;5097514;28;20316;-77
2023/04/07 10:41:40;;;;;;;9.98;3.15;;;11.80;99.90;;;;;;5062518;28;20483;-75
2023/04/07 10:44:07;;;;;;;8.98;2.90;;;11.80;99.90;;;;;;5078753;28;20052;-75
2023/04/07 10:47:03;;;;;;;7.78;3.17;;;11.70;99.90;;;;;;5079984;28;20123;-75
2023/04/07 10:49:29;;;;;;;9.32;3.40;;;11.70;99.90;;;;;;5060517;28;20450;-75
2023/04/07 10:52:13;;;;;;;7.68;3.13;;;11.60;99.90;;;;;;5096938;28;20115;-75
2023/04/07 10:54:40;;;;;;;11.75;3.13;;;11.60;99.90;;;;;;5079047;28;20040;-75
2023/04/07 10:57:12;;;;;;;9.30;3.05;;;11.60;99.90;;;;;;5097462;28;20085;-75
2023/04/07 11:00:02;;;;;;;5.72;2.85;;;11.60;99.90;;;;;;5097546;28;20055;-74
2023/04/07 11:02:27;;;;;;;7.88;3.13;;;11.60;99.90;;;;;;5096972;28;20106;-75
2023/04/07 11:04:53;;;;;;;5.97;3.15;;;11.50;99.90;;;;;;5097330;28;20060;-76
2023/04/07 11:07:42;;;;;;;8.23;3.00;;;11.50;99.90;;;;;;5078866;28;20564;-76
2023/04/07 11:10:10;;;;;;;10.50;3.42;;;11.60;99.90;;;;;;5097313;28;20435;-74
2023/04/07 11:12:36;;;;;;;8.95;3.20;;;11.70;99.90;;;;;;5079448;28;20032;-75
2023/04/07 11:15:17;;;;;;;12.38;4.25;;;11.80;99.90;;;;;;5097388;28;20517;-76
2023/04/07 11:17:42;;;;;;;10.63;4.43;;;11.80;99.90;;;;;;5096943;28;20053;-76
2023/04/07 11:20:08;;;;;;;8.40;4.22;;;11.80;99.90;;;;;;5096805;28;20036;-75
2023/04/07 11:22:36;;;;;;;8.88;4.22;;;11.80;99.90;;;;;;5078688;28;20031;-76
2023/04/07 11:25:01;;;;;;;13.05;4.20;;;11.70;99.90;;;;;;5062040;28;20036;-76
2023/04/07 11:27:28;;;;;;;7.80;3.92;;;11.80;99.90;;;;;;5078508;28;20027;-77
2023/04/07 11:29:55;;;;;;;6.90;3.20;;;11.80;99.90;;;;;;5078709;28;20032;-77
2023/04/07 11:32:26;;;;;;;8.50;3.38;;;11.80;99.90;;;;;;5078143;28;20036;-75
2023/04/07 11:34:52;;;;;;;11.55;3.80;;;11.80;99.90;;;;;;5062039;28;20226;-75
2023/04/07 11:37:23;;;;;;;7.40;3.63;;;11.90;99.90;;;;;;5096716;28;20059;-75
2023/04/07 11:39:56;;;;;;;8.15;2.50;;;11.80;99.90;;;;;;5095982;28;20085;-76
2023/04/07 11:42:36;;;;;;;7.95;3.78;;;11.90;99.90;;;;;;5096213;28;20101;-76
2023/04/07 11:45:02;;;;;;;11.05;3.83;;;11.80;99.90;;;;;;5096548;28;20052;-77
2023/04/07 11:47:38;;;;;;;8.25;3.83;;;11.80;99.90;;;;;;5096663;28;20353;-78
2023/04/07 11:50:04;;;;;;;10.73;4.60;;;11.80;99.90;;;;;;5096756;28;20028;-76
2023/04/07 11:52:48;;;;;;;6.70;2.90;;;11.80;99.90;;;;;;5061536;28;20035;-80
2023/04/07 11:55:18;;;;;;;6.28;3.20;;;11.90;99.90;;;;;;5096446;28;20028;-79
2023/04/07 11:57:44;;;;;;;7.47;5.03;;;11.90;99.90;;;;;;5096420;28;20094;-79
2023/04/07 12:00:12;;;;;;;5.00;3.13;;;11.90;99.90;;;;;;5096716;28;20051;-81
2023/04/07 12:02:38;;;;;;;8.27;4.28;;;11.90;99.90;;;;;;5095827;28;20464;-78
2023/04/07 12:05:04;;;;;;;6.72;3.00;;;12.00;99.90;;;;;;5061355;28;20032;-81
2023/04/07 12:07:30;;;;;;;9.15;4.57;;;12.00;99.90;;;;;;5078294;28;20024;-80
2023/04/07 12:09:58;;;;;;;8.02;3.80;;;12.10;99.90;;;;;;5078354;28;20035;-81
2023/04/07 12:12:26;;;;;;;10.00;4.40;;;12.10;99.90;;;;;;5095695;28;20020;-82
2023/04/07 12:14:52;;;;;;;8.15;4.10;;;12.20;99.90;;;;;;5096102;28;20043;-80
2023/04/07 12:17:25;;;;;;;8.40;3.55;;;12.10;99.90;;;;;;5095625;28;20024;-79
2023/04/07 12:19:52;;;;;;;8.40;3.47;;;12.10;99.90;;;;;;5095667;28;20032;-80
2023/04/07 12:22:18;;;;;;;6.25;3.58;;;12.10;99.90;;;;;;5077424;28;20028;-80
2023/04/07 12:24:44;;;;;;;8.63;3.17;;;12.10;99.90;;;;;;5095214;28;20035;-80
2023/04/07 12:27:10;;;;;;;9.85;3.85;;;12.10;99.90;;;;;;5076927;28;20020;-81
2023/04/07 12:29:37;;;;;;;9.13;4.03;;;12.10;99.90;;;;;;5060823;28;20498;-82
2023/04/07 12:32:03;;;;;;;6.10;3.30;;;12.10;99.90;;;;;;5095601;28;20020;-82
2023/04/07 12:34:29;;;;;;;11.48;4.47;;;12.10;99.90;;;;;;5096003;28;20032;-83
2023/04/07 12:36:55;;;;;;;6.93;3.97;;;12.10;99.90;;;;;;5095669;28;20039;-83
2023/04/07 12:39:21;;;;;;;9.57;4.25;;;12.10;99.90;;;;;;5077321;28;20078;-82